createdAt,value
2018-05-08T00:00:50.205Z,982.179
2018-05-08T00:02:50.285Z,982.174
2018-05-08T00:04:50.576Z,982.180
2018-05-08T00:06:49.902Z,982.190
2018-05-08T00:08:50.189Z,982.190
2018-05-08T00:10:50.561Z,982.182
2018-05-08T00:12:49.765Z,982.192
2018-05-08T00:14:49.964Z,982.193
2018-05-08T00:16:50.231Z,982.203
2018-05-08T00:18:50.428Z,982.192
2018-05-08T00:20:50.528Z,982.180
2018-05-08T00:22:49.652Z,982.179
2018-05-08T00:24:49.759Z,982.166
2018-05-08T00:26:50.006Z,982.111
2018-05-08T00:28:50.127Z,982.096
2018-05-08T00:30:50.247Z,982.085
2018-05-08T00:32:50.313Z,982.075
2018-05-08T00:34:49.647Z,982.062
2018-05-08T00:36:49.876Z,982.049
2018-05-08T00:38:49.995Z,982.043
2018-05-08T00:40:50.148Z,982.021
2018-05-08T00:42:50.225Z,982.010
2018-05-08T00:44:50.288Z,981.972
2018-05-08T00:46:49.677Z,981.977
2018-05-08T00:48:49.818Z,981.992
2018-05-08T00:50:49.922Z,981.991
2018-05-08T00:52:50.137Z,982.010
2018-05-08T00:54:50.278Z,982.037
2018-05-08T00:56:50.463Z,982.028
2018-05-08T00:58:50.619Z,982.012
2018-05-08T01:00:49.912Z,981.994
2018-05-08T01:02:49.982Z,981.980
2018-05-08T01:04:50.376Z,981.971
2018-05-08T01:06:49.699Z,981.988
2018-05-08T01:08:49.863Z,981.972
2018-05-08T01:10:50.087Z,981.964
2018-05-08T01:12:50.223Z,981.953
2018-05-08T01:14:50.368Z,981.954
2018-05-08T01:16:50.610Z,981.920
2018-05-08T01:18:49.753Z,981.891
2018-05-08T01:20:49.861Z,981.839
2018-05-08T01:22:50.026Z,981.822
2018-05-08T01:24:50.146Z,981.795
2018-05-08T01:26:50.366Z,981.777
2018-05-08T01:28:50.520Z,981.777
2018-05-08T01:30:49.646Z,981.795
2018-05-08T01:32:49.739Z,981.811
2018-05-08T01:34:50.033Z,981.806
2018-05-08T01:36:50.242Z,981.785
2018-05-08T01:38:50.348Z,981.766
2018-05-08T01:40:50.490Z,981.754
2018-05-08T01:42:49.670Z,981.758
2018-05-08T01:44:49.869Z,981.750
2018-05-08T01:46:50.073Z,981.753
2018-05-08T01:48:50.256Z,981.760
2018-05-08T01:50:50.379Z,981.767
2018-05-08T01:52:50.546Z,981.766
2018-05-08T01:54:49.804Z,981.767
2018-05-08T01:56:50.083Z,981.755
2018-05-08T01:58:50.272Z,981.755
2018-05-08T02:00:50.396Z,981.754
2018-05-08T02:02:50.570Z,981.743
2018-05-08T02:04:49.878Z,981.744
2018-05-08T02:06:50.132Z,981.732
2018-05-08T02:08:50.024Z,981.732
2018-05-08T02:10:50.207Z,981.697
2018-05-08T02:12:50.300Z,981.674
2018-05-08T02:14:50.420Z,981.647
2018-05-08T02:16:49.690Z,981.629
2018-05-08T02:18:49.890Z,981.622
2018-05-08T02:20:50.059Z,981.594
2018-05-08T02:22:50.229Z,981.582
2018-05-08T02:24:50.357Z,981.566
2018-05-08T02:26:49.628Z,981.566
2018-05-08T02:28:49.763Z,981.550
2018-05-08T02:30:49.886Z,981.527
2018-05-08T02:32:50.015Z,981.511
2018-05-08T02:34:50.248Z,981.488
2018-05-08T02:36:50.485Z,981.467
2018-05-08T02:38:50.563Z,981.450
2018-05-08T02:40:49.773Z,981.415
2018-05-08T02:42:49.901Z,981.416
2018-05-08T02:44:50.065Z,981.394
2018-05-08T02:46:50.306Z,981.392
2018-05-08T02:48:50.431Z,981.367
2018-05-08T02:50:50.563Z,981.354
2018-05-08T02:52:49.689Z,981.349
2018-05-08T02:54:49.903Z,981.351
2018-05-08T02:56:50.210Z,981.361
2018-05-08T02:58:50.355Z,981.356
2018-05-08T03:00:50.515Z,981.366
2018-05-08T03:02:49.657Z,981.384
2018-05-08T03:04:49.962Z,981.407
2018-05-08T03:06:50.229Z,981.416
2018-05-08T03:08:50.362Z,981.448
2018-05-08T03:10:50.572Z,981.449
2018-05-08T03:12:49.636Z,981.477
2018-05-08T03:14:49.808Z,981.452
2018-05-08T03:16:50.031Z,981.448
2018-05-08T03:18:50.177Z,981.506
2018-05-08T03:20:50.244Z,981.536
2018-05-08T03:22:50.389Z,981.543
2018-05-08T03:24:50.554Z,981.544
2018-05-08T03:26:49.805Z,981.573
2018-05-08T03:28:49.938Z,981.591
2018-05-08T03:30:50.058Z,981.586
2018-05-08T03:32:50.170Z,981.569
2018-05-08T03:34:50.495Z,981.556
2018-05-08T03:36:49.665Z,981.572
2018-05-08T03:38:49.761Z,981.591
2018-05-08T03:40:49.836Z,981.619
2018-05-08T03:42:49.957Z,981.636
2018-05-08T03:44:50.073Z,981.620
2018-05-08T03:46:50.295Z,981.619
2018-05-08T03:48:50.450Z,981.609
2018-05-08T03:50:50.597Z,981.594
2018-05-08T03:52:49.737Z,981.587
2018-05-08T03:54:49.859Z,981.591
2018-05-08T03:56:50.136Z,981.606
2018-05-08T03:58:50.256Z,981.608
2018-05-08T04:00:50.410Z,981.601
2018-05-08T04:02:50.484Z,981.602
2018-05-08T04:04:49.988Z,981.595
2018-05-08T04:06:50.237Z,981.592
2018-05-08T04:08:50.356Z,981.577
2018-05-08T04:10:50.467Z,981.586
2018-05-08T04:12:50.581Z,981.592
2018-05-08T04:14:49.717Z,981.570
2018-05-08T04:16:49.986Z,981.528
2018-05-08T04:18:50.116Z,981.502
2018-05-08T04:20:50.251Z,981.495
2018-05-08T04:22:50.438Z,981.492
2018-05-08T04:24:50.542Z,981.494
2018-05-08T04:26:50.111Z,981.489
2018-05-08T04:28:50.218Z,981.480
2018-05-08T04:30:50.415Z,981.452
2018-05-08T04:32:50.584Z,981.452
2018-05-08T04:34:49.940Z,981.382
2018-05-08T04:36:50.223Z,981.382
2018-05-08T04:38:50.355Z,981.349
2018-05-08T04:40:50.455Z,981.340
2018-05-08T04:42:49.642Z,981.318
2018-05-08T04:44:49.720Z,981.305
2018-05-08T04:46:49.947Z,981.278
2018-05-08T04:48:50.133Z,981.265
2018-05-08T04:50:50.201Z,981.264
2018-05-08T04:52:50.437Z,981.251
2018-05-08T04:54:50.522Z,981.228
2018-05-08T04:56:49.804Z,981.214
2018-05-08T04:58:50.109Z,981.202
2018-05-08T05:00:50.247Z,981.177
2018-05-08T05:02:50.431Z,981.167
2018-05-08T05:04:49.733Z,981.165
2018-05-08T05:06:50.092Z,981.164
2018-05-08T05:08:50.416Z,981.156
2018-05-08T05:10:50.541Z,981.150
2018-05-08T05:12:49.656Z,981.156
2018-05-08T05:14:49.734Z,981.161
2018-05-08T05:16:50.046Z,981.154
2018-05-08T05:18:50.226Z,981.185
2018-05-08T05:20:50.296Z,981.193
2018-05-08T05:22:50.470Z,981.195
2018-05-08T05:24:50.599Z,981.191
2018-05-08T05:26:49.781Z,981.179
2018-05-08T05:28:49.870Z,981.157
2018-05-08T05:30:49.930Z,981.157
2018-05-08T05:32:50.106Z,981.162
2018-05-08T05:34:50.411Z,981.157
2018-05-08T05:36:50.294Z,981.131
2018-05-08T05:38:50.373Z,981.129
2018-05-08T05:40:50.450Z,981.123
2018-05-08T05:42:49.648Z,981.120
2018-05-08T05:44:49.753Z,981.111
2018-05-08T05:46:49.963Z,981.109
2018-05-08T05:48:50.082Z,981.115
2018-05-08T05:50:50.318Z,981.127
2018-05-08T05:52:50.585Z,981.134
2018-05-08T05:54:49.722Z,981.106
2018-05-08T05:56:49.947Z,981.074
2018-05-08T05:58:50.125Z,981.048
2018-05-08T06:00:50.249Z,981.033
2018-05-08T06:02:50.451Z,981.036
2018-05-08T06:04:49.775Z,981.026
2018-05-08T06:06:50.106Z,980.989
2018-05-08T06:08:50.233Z,980.989
2018-05-08T06:10:50.373Z,980.993
2018-05-08T06:12:50.554Z,980.999
2018-05-08T06:14:49.666Z,980.992
2018-05-08T06:16:49.965Z,980.957
2018-05-08T06:18:50.151Z,980.966
2018-05-08T06:20:50.341Z,980.956
2018-05-08T06:22:50.503Z,980.966
2018-05-08T06:24:49.656Z,980.971
2018-05-08T06:26:49.863Z,980.986
2018-05-08T06:28:50.006Z,980.992
2018-05-08T06:30:50.115Z,980.967
2018-05-08T06:32:50.241Z,980.942
2018-05-08T06:34:50.645Z,980.927
2018-05-08T06:36:49.894Z,980.961
2018-05-08T06:38:50.028Z,980.965
2018-05-08T06:40:50.248Z,980.968
2018-05-08T06:42:50.476Z,980.972
2018-05-08T06:44:49.677Z,981.002
2018-05-08T06:46:49.909Z,981.025
2018-05-08T06:48:50.093Z,981.059
2018-05-08T06:50:50.259Z,981.071
2018-05-08T06:52:50.360Z,981.081
2018-05-08T06:54:50.601Z,981.051
2018-05-08T06:56:50.111Z,981.029
2018-05-08T06:58:50.267Z,981.020
2018-05-08T07:00:50.466Z,981.010
2018-05-08T07:02:49.666Z,981.015
2018-05-08T07:04:50.032Z,981.011
2018-05-08T07:06:50.255Z,981.021
2018-05-08T07:08:50.501Z,981.025
2018-05-08T07:10:50.662Z,981.026
2018-05-08T07:12:49.831Z,980.989
2018-05-08T07:14:49.968Z,980.963
2018-05-08T07:16:50.246Z,980.937
2018-05-08T07:18:50.366Z,980.905
2018-05-08T07:20:50.561Z,980.904
2018-05-08T07:22:49.719Z,980.896
2018-05-08T07:24:49.827Z,980.886
2018-05-08T07:26:50.121Z,980.887
2018-05-08T07:28:50.219Z,980.895
2018-05-08T07:30:50.453Z,980.910
2018-05-08T07:32:49.767Z,980.918
2018-05-08T07:34:50.045Z,980.912
2018-05-08T07:36:50.268Z,980.895
2018-05-08T07:38:50.425Z,980.860
2018-05-08T07:40:50.575Z,980.851
2018-05-08T07:42:49.691Z,980.841
2018-05-08T07:44:49.825Z,980.816
2018-05-08T07:46:49.999Z,980.791
2018-05-08T07:48:50.126Z,980.775
2018-05-08T07:50:50.404Z,980.784
2018-05-08T07:52:50.657Z,980.797
2018-05-08T07:54:49.816Z,980.794
2018-05-08T07:56:50.061Z,980.786
2018-05-08T07:58:50.162Z,980.776
2018-05-08T08:00:50.371Z,980.741
2018-05-08T08:02:50.530Z,980.741
2018-05-08T08:04:49.867Z,980.693
2018-05-08T08:06:50.168Z,980.684
2018-05-08T08:08:50.342Z,980.679
2018-05-08T08:10:50.521Z,980.677
2018-05-08T08:12:49.647Z,980.680
2018-05-08T08:14:49.761Z,980.673
2018-05-08T08:16:50.090Z,980.661
2018-05-08T08:18:50.223Z,980.612
2018-05-08T08:20:50.350Z,980.612
2018-05-08T08:22:50.471Z,980.596
2018-05-08T08:24:49.641Z,980.597
2018-05-08T08:26:49.988Z,980.547
2018-05-08T08:28:50.187Z,980.532
2018-05-08T08:30:50.329Z,980.519
2018-05-08T08:32:50.484Z,980.474
2018-05-08T08:34:49.934Z,980.438
2018-05-08T08:36:50.178Z,980.431
2018-05-08T08:38:50.290Z,980.471
2018-05-08T08:40:50.568Z,980.492
2018-05-08T08:42:49.887Z,980.445
2018-05-08T08:44:50.042Z,980.443
2018-05-08T08:46:50.419Z,980.431
2018-05-08T08:48:50.566Z,980.416
2018-05-08T08:50:49.705Z,980.450
2018-05-08T08:52:49.794Z,980.347
2018-05-08T08:54:49.921Z,980.301
2018-05-08T08:56:50.154Z,980.289
2018-05-08T08:58:50.274Z,980.301
2018-05-08T09:00:50.403Z,980.311
2018-05-08T09:02:50.621Z,980.311
2018-05-08T09:04:49.898Z,980.299
2018-05-08T09:06:50.138Z,980.279
2018-05-08T09:08:50.341Z,980.277
2018-05-08T09:10:50.478Z,980.252
2018-05-08T09:12:49.688Z,980.254
2018-05-08T09:14:49.793Z,980.224
2018-05-08T09:16:50.068Z,980.170
2018-05-08T09:18:50.183Z,980.150
2018-05-08T09:20:50.467Z,980.134
2018-05-08T09:22:50.594Z,980.149
2018-05-08T09:24:49.732Z,980.121
2018-05-08T09:26:49.916Z,980.121
2018-05-08T09:28:50.095Z,980.103
2018-05-08T09:30:50.219Z,980.096
2018-05-08T09:32:50.497Z,980.111
2018-05-08T09:34:49.859Z,980.102
2018-05-08T09:36:50.107Z,980.095
2018-05-08T09:38:50.311Z,980.057
2018-05-08T09:40:50.538Z,979.990
2018-05-08T09:42:49.938Z,979.968
2018-05-08T09:44:50.162Z,979.967
2018-05-08T09:46:50.430Z,979.949
2018-05-08T09:48:50.766Z,979.907
2018-05-08T09:50:50.177Z,979.888
2018-05-08T09:52:50.316Z,979.861
2018-05-08T09:54:50.440Z,979.851
2018-05-08T09:56:49.731Z,979.826
2018-05-08T09:58:50.117Z,979.813
2018-05-08T10:00:50.374Z,979.795
2018-05-08T10:02:50.434Z,979.795
2018-05-08T10:04:49.819Z,979.772
2018-05-08T10:06:50.109Z,979.706
2018-05-08T10:08:50.208Z,979.676
2018-05-08T10:10:50.402Z,979.673
2018-05-08T10:12:50.560Z,979.658
2018-05-08T10:14:49.730Z,979.618
2018-05-08T10:16:49.955Z,979.597
2018-05-08T10:18:50.107Z,979.579
2018-05-08T10:20:50.268Z,979.559
2018-05-08T10:22:50.417Z,979.500
2018-05-08T10:24:50.521Z,979.426
2018-05-08T10:26:50.127Z,979.407
2018-05-08T10:28:50.527Z,979.447
2018-05-08T10:30:49.724Z,979.490
2018-05-08T10:32:49.865Z,979.454
2018-05-08T10:34:50.374Z,979.415
2018-05-08T10:36:49.635Z,979.393
2018-05-08T10:38:49.747Z,979.394
2018-05-08T10:40:49.915Z,979.394
2018-05-08T10:42:50.286Z,979.247
2018-05-08T10:44:49.719Z,979.247
2018-05-08T10:46:49.992Z,979.201
2018-05-08T10:48:50.131Z,979.175
2018-05-08T10:50:50.345Z,979.152
2018-05-08T10:52:50.474Z,979.119
2018-05-08T10:54:49.724Z,979.071
2018-05-08T10:56:49.920Z,979.069
2018-05-08T10:58:50.106Z,979.063
2018-05-08T11:00:50.321Z,978.989
2018-05-08T11:02:50.520Z,978.925
2018-05-08T11:04:49.952Z,978.855
2018-05-08T11:06:50.164Z,978.878
2018-05-08T11:08:50.298Z,978.866
2018-05-08T11:10:50.442Z,978.867
2018-05-08T11:12:49.694Z,978.873
2018-05-08T11:14:49.838Z,978.873
2018-05-08T11:16:50.079Z,978.746
2018-05-08T11:18:50.230Z,978.664
2018-05-08T11:20:50.430Z,978.678
2018-05-08T11:22:49.744Z,978.647
2018-05-08T11:24:49.892Z,978.650
2018-05-08T11:26:50.516Z,978.659
2018-05-08T11:28:50.266Z,978.647
2018-05-08T11:30:50.374Z,978.579
2018-05-08T11:32:50.476Z,978.490
2018-05-08T11:34:49.774Z,978.471
2018-05-08T11:36:50.040Z,978.379
2018-05-08T11:38:50.125Z,978.371
2018-05-08T11:40:50.268Z,978.315
2018-05-08T11:42:50.375Z,978.270
2018-05-08T11:44:49.749Z,978.246
2018-05-08T11:46:49.979Z,978.226
2018-05-08T11:48:50.113Z,978.212
2018-05-08T11:50:50.356Z,978.190
2018-05-08T11:52:50.482Z,978.139
2018-05-08T11:54:49.686Z,978.086
2018-05-08T11:56:49.857Z,978.088
2018-05-08T11:58:50.020Z,978.082
2018-05-08T12:00:50.290Z,978.026
2018-05-08T12:02:49.618Z,978.008
2018-05-08T12:04:50.147Z,978.006
2018-05-08T12:06:50.414Z,977.993
2018-05-08T12:08:50.531Z,977.943
2018-05-08T12:10:49.669Z,977.917
2018-05-08T12:12:49.755Z,977.911
2018-05-08T12:14:49.949Z,977.938
2018-05-08T12:16:49.671Z,977.886
2018-05-08T12:18:49.902Z,977.850
2018-05-08T12:20:50.027Z,977.774
2018-05-08T12:22:50.173Z,977.783
2018-05-08T12:24:50.298Z,977.817
2018-05-08T12:26:50.582Z,977.783
2018-05-08T12:28:49.660Z,977.718
2018-05-08T12:30:49.818Z,977.683
2018-05-08T12:32:49.920Z,977.619
2018-05-08T12:34:50.247Z,977.650
2018-05-08T12:36:50.523Z,977.611
2018-05-08T12:38:49.650Z,977.590
2018-05-08T12:40:49.779Z,977.619
2018-05-08T12:42:50.003Z,977.635
2018-05-08T12:44:50.165Z,977.615
2018-05-08T12:46:50.504Z,977.587
2018-05-08T12:48:49.683Z,977.545
2018-05-08T12:50:49.814Z,977.555
2018-05-08T12:52:49.946Z,977.480
2018-05-08T12:54:50.115Z,977.409
2018-05-08T12:56:50.365Z,977.366
2018-05-08T12:58:50.542Z,977.350
2018-05-08T13:00:49.659Z,977.255
2018-05-08T13:02:49.888Z,977.236
2018-05-08T13:04:50.398Z,977.194
2018-05-08T13:06:49.679Z,977.173
2018-05-08T13:08:49.871Z,977.176
2018-05-08T13:10:50.178Z,977.143
2018-05-08T13:12:50.546Z,977.087
2018-05-08T13:14:49.740Z,977.036
2018-05-08T13:16:50.016Z,977.009
2018-05-08T13:18:50.074Z,976.978
2018-05-08T13:20:50.187Z,976.966
2018-05-08T13:22:50.382Z,976.978
2018-05-08T13:24:50.528Z,976.926
2018-05-08T13:26:49.903Z,976.958
2018-05-08T13:28:49.984Z,976.982
2018-05-08T13:30:50.139Z,976.956
2018-05-08T13:32:50.255Z,976.933
2018-05-08T13:34:49.773Z,976.893
2018-05-08T13:36:49.949Z,976.883
2018-05-08T13:38:50.056Z,976.898
2018-05-08T13:40:50.258Z,976.919
2018-05-08T13:42:50.403Z,976.947
2018-05-08T13:44:50.538Z,976.922
2018-05-08T13:46:49.890Z,976.882
2018-05-08T13:48:50.182Z,976.844
2018-05-08T13:50:50.327Z,976.804
2018-05-08T13:52:50.536Z,976.801
2018-05-08T13:54:49.644Z,976.803
2018-05-08T13:56:50.276Z,976.782
2018-05-08T13:58:50.455Z,976.778
2018-05-08T14:00:50.732Z,976.754
2018-05-08T14:02:50.101Z,976.741
2018-05-08T14:04:50.534Z,976.758
2018-05-08T14:06:49.929Z,976.691
2018-05-08T14:08:50.222Z,976.622
2018-05-08T14:10:50.436Z,976.573
2018-05-08T14:12:50.587Z,976.522
2018-05-08T14:14:49.707Z,976.530
2018-05-08T14:16:49.967Z,976.603
2018-05-08T14:18:50.177Z,976.597
2018-05-08T14:20:50.306Z,976.586
2018-05-08T14:22:50.435Z,976.598
2018-05-08T14:24:50.726Z,976.538
2018-05-08T14:26:50.204Z,976.495
2018-05-08T14:28:50.310Z,976.481
2018-05-08T14:30:50.476Z,976.455
2018-05-08T14:32:49.729Z,976.462
2018-05-08T14:34:50.071Z,976.441
2018-05-08T14:36:50.328Z,976.420
2018-05-08T14:38:50.508Z,976.383
2018-05-08T14:40:49.638Z,976.343
2018-05-08T14:42:49.808Z,976.343
2018-05-08T14:44:49.969Z,976.314
2018-05-08T14:46:50.190Z,976.313
2018-05-08T14:48:50.336Z,976.322
2018-05-08T14:50:50.522Z,976.338
2018-05-08T14:52:49.645Z,976.359
2018-05-08T14:54:49.746Z,976.334
2018-05-08T14:56:49.956Z,976.315
2018-05-08T14:58:50.393Z,976.286
2018-05-08T15:00:49.704Z,976.252
2018-05-08T15:02:49.881Z,976.230
2018-05-08T15:04:50.133Z,976.186
2018-05-08T15:06:50.367Z,976.166
2018-05-08T15:08:50.616Z,976.127
2018-05-08T15:10:49.883Z,976.130
2018-05-08T15:12:50.110Z,976.102
2018-05-08T15:14:50.224Z,976.094
2018-05-08T15:16:50.526Z,976.043
2018-05-08T15:18:49.710Z,976.051
2018-05-08T15:20:49.850Z,976.020
2018-05-08T15:22:50.003Z,976.002
2018-05-08T15:24:50.181Z,976.003
2018-05-08T15:26:50.489Z,975.990
2018-05-08T15:28:50.563Z,975.947
2018-05-08T15:30:49.692Z,975.916
2018-05-08T15:32:49.779Z,975.916
2018-05-08T15:34:50.218Z,975.883
2018-05-08T15:36:50.576Z,975.858
2018-05-08T15:38:49.652Z,975.889
2018-05-08T15:40:49.760Z,975.878
2018-05-08T15:42:49.900Z,975.876
2018-05-08T15:44:50.061Z,975.862
2018-05-08T15:46:50.445Z,975.862
2018-05-08T15:48:50.649Z,975.843
2018-05-08T15:50:49.851Z,975.797
2018-05-08T15:52:50.000Z,975.781
2018-05-08T15:54:50.141Z,975.774
2018-05-08T15:56:50.357Z,975.731
2018-05-08T15:58:50.578Z,975.706
2018-05-08T16:00:49.717Z,975.727
2018-05-08T16:02:49.893Z,975.733
2018-05-08T16:04:50.269Z,975.725
2018-05-08T16:06:49.660Z,975.728
2018-05-08T16:08:49.797Z,975.755
2018-05-08T16:10:49.997Z,975.763
2018-05-08T16:12:50.143Z,975.767
2018-05-08T16:14:50.235Z,975.747
2018-05-08T16:16:50.477Z,975.703
2018-05-08T16:18:50.584Z,975.666
2018-05-08T16:20:49.801Z,975.613
2018-05-08T16:22:50.090Z,975.548
2018-05-08T16:24:50.225Z,975.530
2018-05-08T16:26:50.516Z,975.501
2018-05-08T16:28:49.684Z,975.505
2018-05-08T16:30:49.857Z,975.541
2018-05-08T16:32:50.134Z,975.509
2018-05-08T16:34:50.462Z,975.504
2018-05-08T16:36:49.832Z,975.512
2018-05-08T16:38:49.968Z,975.519
2018-05-08T16:40:50.105Z,975.536
2018-05-08T16:42:50.270Z,975.536
2018-05-08T16:44:50.452Z,975.559
2018-05-08T16:46:49.739Z,975.546
2018-05-08T16:48:49.893Z,975.483
2018-05-08T16:50:50.108Z,975.461
2018-05-08T16:52:50.223Z,975.457
2018-05-08T16:54:50.456Z,975.438
2018-05-08T16:56:49.669Z,975.430
2018-05-08T16:58:49.889Z,975.449
2018-05-08T17:00:50.210Z,975.449
2018-05-08T17:02:50.455Z,975.438
2018-05-08T17:04:49.960Z,975.419
2018-05-08T17:06:49.626Z,975.411
2018-05-08T17:08:49.758Z,975.392
2018-05-08T17:10:49.970Z,975.408
2018-05-08T17:12:50.116Z,975.415
2018-05-08T17:14:50.256Z,975.460
2018-05-08T17:16:50.472Z,975.473
2018-05-08T17:18:50.596Z,975.487
2018-05-08T17:20:49.766Z,975.483
2018-05-08T17:22:50.013Z,975.480
2018-05-08T17:24:50.194Z,975.480
2018-05-08T17:26:50.422Z,975.514
2018-05-08T17:28:50.533Z,975.529
2018-05-08T17:30:49.695Z,975.541
2018-05-08T17:32:49.824Z,975.562
2018-05-08T17:34:50.119Z,975.572
2018-05-08T17:36:50.414Z,975.583
2018-05-08T17:38:50.608Z,975.599
2018-05-08T17:40:49.725Z,975.614
2018-05-08T17:42:49.912Z,975.612
2018-05-08T17:44:50.032Z,975.613
2018-05-08T17:46:50.258Z,975.644
2018-05-08T17:48:50.355Z,975.643
2018-05-08T17:50:50.542Z,975.641
2018-05-08T17:52:49.664Z,975.623
2018-05-08T17:54:49.866Z,975.605
2018-05-08T17:56:50.076Z,975.611
2018-05-08T17:58:50.383Z,975.592
2018-05-08T18:00:49.674Z,975.589
2018-05-08T18:02:49.899Z,975.584
2018-05-08T18:04:50.256Z,975.596
2018-05-08T18:06:50.538Z,975.600
2018-05-08T18:08:49.661Z,975.611
2018-05-08T18:10:49.789Z,975.596
2018-05-08T18:12:49.961Z,975.598
2018-05-08T18:14:50.148Z,975.600
2018-05-08T18:16:50.520Z,975.612
2018-05-08T18:18:49.680Z,975.637
2018-05-08T18:20:49.846Z,975.659
2018-05-08T18:22:50.014Z,975.675
2018-05-08T18:24:50.237Z,975.690
2018-05-08T18:26:50.589Z,975.682
2018-05-08T18:28:49.903Z,975.706
2018-05-08T18:30:50.093Z,975.708
2018-05-08T18:32:50.246Z,975.706
2018-05-08T18:34:49.684Z,975.690
2018-05-08T18:36:49.853Z,975.705
2018-05-08T18:38:50.004Z,975.721
2018-05-08T18:40:50.107Z,975.750
2018-05-08T18:42:50.274Z,975.773
2018-05-08T18:44:50.378Z,975.802
2018-05-08T18:46:50.573Z,975.824
2018-05-08T18:48:49.679Z,975.849
2018-05-08T18:50:49.805Z,975.862
2018-05-08T18:52:50.074Z,975.882
2018-05-08T18:54:50.263Z,975.908
2018-05-08T18:56:50.592Z,975.943
2018-05-08T18:58:49.705Z,975.973
2018-05-08T19:00:49.870Z,975.985
2018-05-08T19:02:50.012Z,976.001
2018-05-08T19:04:50.451Z,976.015
2018-05-08T19:06:49.971Z,976.035
2018-05-08T19:08:50.549Z,976.047
2018-05-08T19:10:49.670Z,976.071
2018-05-08T19:12:49.852Z,976.065
2018-05-08T19:14:50.008Z,976.098
2018-05-08T19:16:50.312Z,976.114
2018-05-08T19:18:50.485Z,976.135
2018-05-08T19:20:49.840Z,976.168
2018-05-08T19:22:50.186Z,976.173
2018-05-08T19:24:50.403Z,976.193
2018-05-08T19:26:49.747Z,976.210
2018-05-08T19:28:49.926Z,976.240
2018-05-08T19:30:50.217Z,976.282
2018-05-08T19:32:50.330Z,976.298
2018-05-08T19:34:49.921Z,976.307
2018-05-08T19:36:50.196Z,976.307
2018-05-08T19:38:49.867Z,976.305
2018-05-08T19:40:50.012Z,976.334
2018-05-08T19:42:50.215Z,976.356
2018-05-08T19:44:50.369Z,976.381
2018-05-08T19:46:49.969Z,976.384
2018-05-08T19:48:50.316Z,976.388
2018-05-08T19:50:50.449Z,976.411
2018-05-08T19:52:49.647Z,976.412
2018-05-08T19:54:49.797Z,976.423
2018-05-08T19:56:50.189Z,976.429
2018-05-08T19:58:50.308Z,976.446
2018-05-08T20:00:50.439Z,976.446
2018-05-08T20:02:50.592Z,976.466
2018-05-08T20:04:49.924Z,976.467
2018-05-08T20:06:50.165Z,976.467
2018-05-08T20:08:50.594Z,976.471
2018-05-08T20:10:50.249Z,976.463
2018-05-08T20:12:50.417Z,976.442
2018-05-08T20:14:50.537Z,976.444
2018-05-08T20:16:49.818Z,976.414
2018-05-08T20:18:49.952Z,976.399
2018-05-08T20:20:50.200Z,976.391
2018-05-08T20:22:50.496Z,976.391
2018-05-08T20:24:49.658Z,976.354
2018-05-08T20:26:49.968Z,976.323
2018-05-08T20:28:50.124Z,976.299
2018-05-08T20:30:50.291Z,976.301
2018-05-08T20:32:50.446Z,976.309
2018-05-08T20:34:49.752Z,976.298
2018-05-08T20:36:49.998Z,976.289
2018-05-08T20:38:50.140Z,976.295
2018-05-08T20:40:50.323Z,976.310
2018-05-08T20:42:50.454Z,976.320
2018-05-08T20:44:49.657Z,976.328
2018-05-08T20:46:49.987Z,976.341
2018-05-08T20:48:50.100Z,976.365
2018-05-08T20:50:50.313Z,976.388
2018-05-08T20:52:50.475Z,976.380
2018-05-08T20:54:49.639Z,976.380
2018-05-08T20:56:49.942Z,976.375
2018-05-08T20:58:50.119Z,976.351
2018-05-08T21:00:50.302Z,976.337
2018-05-08T21:02:50.514Z,976.336
2018-05-08T21:04:50.056Z,976.330
2018-05-08T21:06:50.257Z,976.312
2018-05-08T21:08:50.422Z,976.304
2018-05-08T21:10:50.547Z,976.267
2018-05-08T21:12:49.725Z,976.271
2018-05-08T21:14:49.868Z,976.277
2018-05-08T21:16:50.198Z,976.277
2018-05-08T21:18:50.449Z,976.285
2018-05-08T21:20:50.621Z,976.281
2018-05-08T21:22:49.861Z,976.286
2018-05-08T21:24:49.982Z,976.284
2018-05-08T21:26:50.304Z,976.267
2018-05-08T21:28:50.439Z,976.245
2018-05-08T21:30:50.713Z,976.230
2018-05-08T21:32:50.202Z,976.230
2018-05-08T21:34:50.594Z,976.226
2018-05-08T21:36:49.771Z,976.216
2018-05-08T21:38:49.909Z,976.223
2018-05-08T21:40:50.124Z,976.212
2018-05-08T21:42:50.267Z,976.199
2018-05-08T21:44:50.365Z,976.197
2018-05-08T21:46:49.628Z,976.211
2018-05-08T21:48:49.779Z,976.222
2018-05-08T21:50:49.953Z,976.224
2018-05-08T21:52:50.264Z,976.245
2018-05-08T21:54:50.397Z,976.255
2018-05-08T21:56:49.781Z,976.249
2018-05-08T21:58:49.919Z,976.249
2018-05-08T22:00:50.044Z,976.238
2018-05-08T22:02:50.176Z,976.239
2018-05-08T22:04:50.562Z,976.248
2018-05-08T22:06:49.943Z,976.235
2018-05-08T22:08:50.065Z,976.241
2018-05-08T22:10:50.230Z,976.228
2018-05-08T22:12:50.320Z,976.228
2018-05-08T22:14:50.469Z,976.217
2018-05-08T22:16:49.678Z,976.210
2018-05-08T22:18:49.806Z,976.205
2018-05-08T22:20:49.952Z,976.216
2018-05-08T22:22:50.085Z,976.226
2018-05-08T22:24:50.248Z,976.213
2018-05-08T22:26:50.532Z,976.219
2018-05-08T22:28:49.771Z,976.215
2018-05-08T22:30:49.932Z,976.215
2018-05-08T22:32:50.159Z,976.208
2018-05-08T22:34:49.858Z,976.205
2018-05-08T22:36:50.152Z,976.207
2018-05-08T22:38:50.349Z,976.243
2018-05-08T22:40:50.543Z,976.262
2018-05-08T22:42:49.598Z,976.260
2018-05-08T22:44:49.736Z,976.248
2018-05-08T22:46:49.920Z,976.243
2018-05-08T22:48:50.083Z,976.243
2018-05-08T22:50:50.240Z,976.263
2018-05-08T22:52:50.386Z,976.267
2018-05-08T22:54:50.506Z,976.281
2018-05-08T22:56:49.826Z,976.285
2018-05-08T22:58:49.986Z,976.257
2018-05-08T23:00:50.118Z,976.258
2018-05-08T23:02:50.347Z,976.233
2018-05-08T23:04:49.696Z,976.232
2018-05-08T23:06:49.935Z,976.252
2018-05-08T23:08:50.235Z,976.259
2018-05-08T23:10:50.546Z,976.264
2018-05-08T23:12:49.747Z,976.277
2018-05-08T23:14:49.887Z,976.277
2018-05-08T23:16:50.072Z,976.279
2018-05-08T23:18:50.245Z,976.260
2018-05-08T23:20:50.397Z,976.260
2018-05-08T23:22:50.593Z,976.281
2018-05-08T23:24:49.721Z,976.296
2018-05-08T23:26:49.985Z,976.279
2018-05-08T23:28:50.163Z,976.272
2018-05-08T23:30:50.293Z,976.272
2018-05-08T23:32:50.403Z,976.287
2018-05-08T23:34:49.751Z,976.287
2018-05-08T23:36:49.966Z,976.287
2018-05-08T23:38:50.099Z,976.262
2018-05-08T23:40:50.226Z,976.261
2018-05-08T23:42:50.340Z,976.273
2018-05-08T23:44:50.523Z,976.294
2018-05-08T23:46:49.786Z,976.319
2018-05-08T23:48:49.879Z,976.362
2018-05-08T23:50:50.069Z,976.383
2018-05-08T23:52:50.198Z,976.382
2018-05-08T23:54:50.416Z,976.375
2018-05-08T23:56:49.695Z,976.382
2018-05-08T23:58:49.859Z,976.389
